Latest Coastal Weather Observations for Cooktown

IDQ60701

Issued at 11:05 pm EST Friday 31 October 2014 (issued every 10 minutes, with the page automatically refreshed every 10 minutes)

About coastal observations | Map of coastal stations | Coastal observations for QLD | Marine services | Other Formats
Station Details ID: 031209 Name: COOKTOWN AIRPORT Lat: -15.45 Lon: 145.19 Height: 4.8 m
Data from the previous 72 hours. | See also: Recent months at Cooktown
Date/Time
EST
Temp

°C
Wind Pressure Rain
since 9am
mm
Weather Cloud Vis
km
Sea
Height
m
Swell
Dir
 
Speed
knots
Gust
knots
hPa Trend Height
m
Period
s
Dir
31/11:00pm 24.2 SE 5 8 1013.4 - 0.0 - Partly cloudy 10 - - - -
31/10:33pm 24.1 SSE 4 6 1013.7 - 0.0 - Partly cloudy 10 - - - -
31/10:30pm 24.1 SSE 4 6 1013.7 - 0.0 - Partly cloudy 10 - - - -
31/10:00pm 24.3 SE 4 7 1013.7 - 0.0 - Partly cloudy 10 - - - -
31/09:55pm 24.3 SE 5 7 1013.7 - 0.0 - Partly cloudy 10 - - - -
31/09:30pm 24.3 SSE 4 5 1013.6 - 0.0 - Partly cloudy 10 - - - -
31/09:00pm 24.6 SE 7 11 1013.2 - 0.0 - Mostly clear 10 - - - -
31/08:30pm 24.8 SE 7 11 1013.1 - 0.0 - Partly cloudy 10 - - - -
31/08:00pm 24.7 SE 6 13 1012.7 - 0.0 - Partly cloudy 10 - - - -
31/07:43pm 24.8 SE 8 12 1012.4 - 0.0 - Partly cloudy 10 - - - -
31/07:30pm 24.8 SE 5 9 1012.2 - 0.0 - Partly cloudy 10 - - - -
31/07:07pm 24.9 ESE 6 10 1012.0 - 0.0 - Partly cloudy 10 - - - -
31/07:00pm 24.7 SE 6 8 1012.0 - 0.0 - Partly cloudy 10 - - - -
31/06:30pm 25.0 ESE 7 11 1011.7 - 0.0 - - 10 - - - -
31/06:00pm 25.6 ESE 9 14 1011.4 - 0.0 - - 10 - - - -
31/05:30pm 26.2 SE 9 13 1011.2 - 0.0 - - 10 - - - -
31/05:00pm 27.3 SE 8 11 1010.8 - 0.0 - - 10 - - - -
31/04:30pm 27.7 E 12 17 1010.7 - 0.0 - - 10 - - - -
31/04:00pm 27.7 ESE 13 19 1010.8 - 0.0 - - 10 - - - -
31/03:30pm 28.6 E 14 18 1011.0 - 0.0 - Partly cloudy 10 - - - -
31/03:00pm 28.4 E 13 17 1010.9 R 0.0 Fine Mostly clear 40 - - - -
31/02:30pm 29.1 E 13 17 1011.0 - 0.0 - - 10 - - - -
31/02:00pm 28.6 E 13 17 1011.2 - 0.0 - Partly cloudy 10 - - - -
31/01:30pm 28.5 E 13 17 1011.4 - 0.0 - - 10 - - - -
31/01:00pm 29.2 E 14 18 1011.7 - 0.0 - - 10 - - - -
31/12:30pm 29.5 E 13 17 1012.1 - 0.0 - - 10 - - - -
31/12:00pm 29.2 E 11 18 1012.4 - 0.0 - - 10 - - - -
31/11:30am 28.8 E 11 16 1012.9 - 0.0 - - 10 - - - -
31/11:00am 28.7 E 13 18 1013.4 - 0.0 - - 10 - - - -
31/10:30am 29.2 E 11 19 1013.8 - 0.0 - - 10 - - - -
31/10:00am 28.4 ESE 13 17 1014.1 - 0.0 - Partly cloudy 10 - - - -
31/09:30am 28.6 ESE 12 17 1014.3 - 0.0 - Partly cloudy 10 - - - -
31/09:00am 28.1 ESE 11 17 1014.0 R 0.0 Fine Mostly clear 40 - - - -
31/08:30am 28.1 E 14 17 1014.1 - 0.0 - Partly cloudy 10 - - - -
31/08:00am 27.1 E 12 19 1014.0 - 0.0 - Partly cloudy 10 - - - -
31/07:30am 26.2 ESE 11 16 1013.6 - 0.0 - Partly cloudy 10 - - - -
31/07:00am 25.2 ESE 9 13 1013.3 - 0.0 - - 10 - - - -
31/06:30am 24.7 ESE 8 11 1012.8 - 0.0 - - 10 - - - -
31/06:00am 24.5 ESE 12 16 1012.1 - 0.0 - Partly cloudy 10 - - - -
31/05:30am 24.5 E 12 17 1011.7 - 0.0 - Partly cloudy 10 - - - -
31/05:00am 24.2 ESE 11 16 1011.6 - 0.0 - Partly cloudy 10 - - - -
31/04:30am 23.8 ESE 9 15 1011.3 - 0.0 - Partly cloudy 10 - - - -
31/04:00am 23.5 ESE 8 12 1011.3 - 0.0 - - 10 - - - -
31/03:30am 23.5 E 9 11 1011.5 - 0.0 - - 10 - - - -
31/03:00am 23.7 ESE 10 13 1011.5 - 0.0 - - 10 - - - -
31/02:30am 23.9 ESE 9 14 1011.5 - 0.0 - - 10 - - - -
31/02:00am 23.9 ESE 10 15 1011.7 - 0.0 - - 10 - - - -
31/01:30am 23.7 ESE 10 13 1011.9 - 0.0 - - 10 - - - -
31/01:00am 24.0 ESE 11 15 1012.3 - 0.0 - - 10 - - - -
31/12:30am 24.1 ESE 10 14 1012.6 - 0.0 - - 10 - - - -
31/12:00am 24.3 ESE 12 17 1012.9 - 0.0 - Partly cloudy 10 - - - -
 
Date/Time
EST
Temp

°C
Wind Pressure Rain
since 9am
mm
Weather Cloud Vis
km
Sea
Height
m
Swell
Dir
 
Speed
knots
Gust
knots
hPa Trend Height
m
Period
s
Dir
30/11:30pm 24.5 E 13 17 1013.1 - 0.0 - Partly cloudy 10 - - - -
30/11:00pm 24.7 ESE 12 16 1013.2 - 0.0 - Partly cloudy 10 - - - -
30/10:30pm 24.8 ESE 10 15 1013.2 - 0.0 - Partly cloudy 10 - - - -
30/10:00pm 24.4 ESE 8 12 1013.1 - 0.0 - Partly cloudy 10 - - - -
30/09:30pm 24.6 ESE 10 15 1012.8 - 0.0 - Partly cloudy 10 - - - -
30/09:00pm 24.4 ESE 9 14 1012.4 - 0.0 - - 10 - - - -
30/08:30pm 24.5 ESE 8 12 1012.2 - 0.0 - Partly cloudy 10 - - - -
30/08:00pm 24.4 ESE 7 13 1012.1 - 0.0 - Partly cloudy 10 - - - -
30/07:30pm 24.5 ESE 7 11 1011.9 - 0.0 - Partly cloudy 10 - - - -
30/07:00pm 24.8 ESE 7 11 1011.6 - 0.0 - Partly cloudy 10 - - - -
30/06:30pm 24.8 ESE 9 13 1011.4 - 0.0 - Partly cloudy 10 - - - -
30/06:00pm 25.6 ESE 9 14 1011.0 - 0.0 - Partly cloudy 10 - - - -
30/05:30pm 26.2 ESE 9 14 1011.0 - 0.0 - Partly cloudy 10 - - - -
30/05:00pm 27.0 SE 11 16 1010.9 - 0.0 - Partly cloudy 10 - - - -
30/04:30pm 27.7 ESE 10 16 1010.8 - 0.0 - Partly cloudy 10 - - - -
30/04:00pm 27.3 E 13 17 1010.8 - 0.0 - Partly cloudy 10 - - - -
30/03:30pm 28.2 SE 12 16 1010.9 - 0.0 - Partly cloudy 10 - - - -
30/03:00pm 28.2 SE 13 17 1010.9 F 0.0 Fine Mostly clear 40 - - - -
30/02:30pm 27.6 ESE 12 18 1011.2 - 0.0 - Partly cloudy 10 - - - -
30/02:00pm 27.7 E 16 22 1011.6 - 0.0 - Partly cloudy 10 - - - -
30/01:30pm 28.1 ESE 15 20 1011.8 - 0.0 - Partly cloudy 10 - - - -
30/01:00pm 28.9 E 15 20 1012.2 - 0.0 - Partly cloudy 10 - - - -
30/12:30pm 27.9 ESE 14 22 1012.7 - 0.0 - - 10 - - - -
30/12:00pm 28.1 ESE 13 19 1013.3 - 0.0 - Mostly cloudy 10 - - - -
30/11:30am 28.8 E 15 20 1013.8 - 0.0 - Cloudy 10 - - - -
30/11:00am 28.7 E 16 21 1014.0 - 0.0 - Partly cloudy 10 - - - -
30/10:30am 29.3 E 14 19 1014.0 - 0.0 - Partly cloudy 10 - - - -
30/10:00am 28.2 E 12 19 1014.1 - 0.0 - - 10 - - - -
30/09:30am 28.3 E 12 17 1014.3 - 0.0 - Partly cloudy 10 - - - -
30/09:00am 27.7 ESE 12 16 1014.2 R 0.0 Fine Partly cloudy 40 - - - -
30/08:30am 27.6 E 12 17 1014.3 - 0.0 - Partly cloudy 10 - - - -
30/08:00am 26.5 E 11 16 1013.8 - 0.0 - Partly cloudy 10 - - - -
30/07:30am 26.1 E 11 15 1013.5 - 0.0 - - 10 - - - -
30/07:00am 24.4 ESE 5 9 1013.4 - 0.0 - Partly cloudy 10 - - - -
30/06:30am 21.0 CALM 0 0 1012.9 - 0.0 - Partly cloudy 10 - - - -
30/06:00am 20.0 CALM 0 0 1012.4 - 0.0 - Mostly clear 10 - - - -
30/05:30am 19.9 CALM 0 0 1012.2 - 0.0 - - 10 - - - -
30/05:00am 20.4 CALM 0 0 1011.9 - 0.0 - - 10 - - - -
30/04:30am 21.1 CALM 0 2 1011.6 - 0.0 - - 10 - - - -
30/04:00am 23.0 ESE 5 7 1011.7 - 0.0 - - 10 - - - -
30/03:30am 22.6 ESE 3 5 1011.6 - 0.0 - - 10 - - - -
30/03:00am 22.7 E 5 7 1011.7 - 0.0 - Mostly clear 10 - - - -
30/02:30am 23.6 E 7 9 1011.9 - 0.0 - Partly cloudy 10 - - - -
30/02:00am 24.3 ESE 5 8 1012.1 - 0.0 - Partly cloudy 10 - - - -
30/01:30am 24.1 E 6 7 1012.3 - 0.0 - Partly cloudy 10 - - - -
30/01:00am 24.1 E 8 11 1012.5 - 0.0 - Partly cloudy 10 - - - -
30/12:30am 24.1 E 8 12 1012.9 - 0.0 - Partly cloudy 10 - - - -
30/12:00am 24.0 E 8 13 1013.0 - 0.0 - Partly cloudy 10 - - - -
 
Date/Time
EST
Temp

°C
Wind Pressure Rain
since 9am
mm
Weather Cloud Vis
km
Sea
Height
m
Swell
Dir
 
Speed
knots
Gust
knots
hPa Trend Height
m
Period
s
Dir
29/11:30pm 23.9 E 7 10 1013.2 - 0.0 - Partly cloudy 10 - - - -
29/11:22pm 24.0 E 8 11 1013.3 - 0.0 - Partly cloudy 10 - - - -
29/11:00pm 23.8 E 5 8 1013.4 - 0.0 - Cloudy 10 - - - -
29/10:47pm 23.8 E 6 8 1013.4 - 0.0 - Partly cloudy 10 - - - -
29/10:30pm 23.6 E 6 10 1013.6 - 0.0 - Partly cloudy 10 - - - -
29/10:00pm 24.0 E 6 8 1013.8 - 0.0 - Partly cloudy 10 - - - -
29/09:30pm 23.8 ESE 6 9 1013.7 - 0.0 - Partly cloudy 10 - - - -
29/09:00pm 23.5 ESE 6 8 1013.3 - 0.0 - Partly cloudy 10 - - - -
29/08:30pm 22.8 E 5 7 1013.2 - 0.0 - Partly cloudy 10 - - - -
29/08:00pm 22.6 E 8 9 1012.9 - 0.0 - - 10 - - - -
29/07:30pm 23.7 ESE 5 8 1012.6 - 0.0 - - 10 - - - -
29/07:00pm 24.0 E 8 11 1012.5 - 0.0 - - 10 - - - -
29/06:30pm 24.2 E 8 13 1012.4 - 0.0 - - 10 - - - -
29/06:00pm 25.2 E 9 14 1012.1 - 0.0 - - 10 - - - -
29/05:30pm 25.9 E 13 18 1012.2 - 0.0 - - 10 - - - -
29/05:00pm 27.0 E 13 17 1011.8 - 0.0 - - 10 - - - -
29/04:30pm 26.9 E 13 18 1011.7 - 0.0 - - 10 - - - -
29/04:00pm 27.0 E 14 18 1011.6 - 0.0 - - 10 - - - -
29/03:30pm 27.8 E 13 19 1011.4 - 0.0 - - 10 - - - -
29/03:00pm 28.0 E 12 16 1011.5 F 0.0 Fine Mostly clear 40 - - - -
29/02:30pm 27.8 E 13 19 1011.8 - 0.0 - - 10 - - - -
29/02:00pm 28.3 E 13 18 1012.3 - 0.0 - - 10 - - - -
29/01:30pm 28.3 E 13 17 1012.5 - 0.0 - - 10 - - - -
29/01:00pm 28.6 E 12 16 1012.9 - 0.0 - - 10 - - - -
29/12:30pm 28.0 E 14 19 1013.2 - 0.0 - - 10 - - - -
29/12:00pm 27.6 ENE 13 19 1013.7 - 0.0 - - 10 - - - -
29/11:30am 28.4 ENE 11 15 1013.8 - 0.0 - - 10 - - - -
29/11:00am 28.0 E 11 15 1013.8 - 0.0 - - 10 - - - -
29/10:30am 27.5 ENE 12 15 1013.9 - 0.0 - - 10 - - - -
29/10:00am 27.7 E 11 17 1014.2 - 0.0 - Partly cloudy 10 - - - -
29/09:30am 27.9 E 12 16 1014.6 - 0.0 - Partly cloudy 10 - - - -
29/09:00am 27.3 E 10 14 1014.5 - 0.0 Fine Mostly clear 40 - - - -
29/08:30am 26.4 E 9 13 1014.4 - 0.0 - Partly cloudy 10 - - - -
29/08:00am 25.7 ESE 6 9 1014.2 - 0.0 - Partly cloudy 10 - - - -
29/07:30am 24.2 SSW 2 4 1014.1 - 0.0 - Partly cloudy 10 - - - -
29/07:00am 22.7 WSW 2 4 1013.8 - 0.0 - Partly cloudy 10 - - - -
29/06:30am 20.5 CALM 0 0 1013.5 - 0.0 - Partly cloudy 10 - - - -
29/06:00am 20.6 SSE 1 3 1012.9 - 0.0 - Partly cloudy 10 - - - -
29/05:30am 21.4 SE 1 3 1012.6 - 0.0 - Partly cloudy 10 - - - -
29/05:00am 22.2 SE 3 5 1012.4 - 0.0 - Partly cloudy 10 - - - -
29/04:30am 22.5 ESE 5 7 1012.1 - 0.0 - Partly cloudy 10 - - - -
29/04:00am 22.5 ESE 4 8 1011.8 - 0.0 - Partly cloudy 10 - - - -
29/03:30am 22.3 ESE 2 4 1011.5 - 0.0 - Partly cloudy 10 - - - -
29/03:00am 22.5 ESE 4 6 1011.3 - 0.0 - Partly cloudy 10 - - - -
29/02:30am 20.4 SSE 1 4 1011.5 - 0.0 - Cloudy 10 - - - -
29/02:00am 20.3 CALM 0 0 1011.6 - 0.0 - Partly cloudy 10 - - - -
29/01:30am 20.8 CALM 0 0 1011.8 - 0.0 - Partly cloudy 10 - - - -
29/01:00am 21.6 S 1 3 1012.2 - 0.0 - Partly cloudy 10 - - - -
29/12:30am 21.2 CALM 0 0 1012.6 - 0.0 - Partly cloudy 10 - - - -
29/12:00am 21.3 CALM 0 0 1012.8 - 0.0 - Mostly cloudy 10 - - - -
 
Date/Time
EST
Temp

°C
Wind Pressure Rain
since 9am
mm
Weather Cloud Vis
km
Sea
Height
m
Swell
Dir
 
Speed
knots
Gust
knots
hPa Trend Height
m
Period
s
Dir
28/11:30pm 21.1 CALM 0 0 1013.3 - 0.0 - Partly cloudy 10 - - - -

Other Formats:

Comma delimited format used in spreadsheet applications
http://www.bom.gov.au/fwo/IDQ60701/IDQ60701.95283.axf

JavaScript Object Notation format (JSON) in row-major order
http://www.bom.gov.au/fwo/IDQ60701/IDQ60701.95283.json